Laconia, New Hampshire
Current Conditions -  °F | °C
As of 6:15 AM on Saturday 25 Oct 2014 (Local Time) from KLCI Reporting Station
Broken Clouds Broken Clouds  
Wind Chill: 41°   Ceiling: 10000
Heat Index: 45°   Visibility: 10mi
Dew Point: 36°   Wind: 6mph
Humidity: 71%   Direction: 240°WSW
Pressure: 29.71"   Gusts: NA
Location:  43.56°N, 71.48°W
Report Text: KLCI 251015Z AUTO 24005KT 10SM BKN100 07/02 A2971 RMK AO1
Loading
Personal Weather Stations






























Interactive Weather Map New forecast layout! Learn more

10-Day Weather Forecast

Advertisements
Track Severe Weather on mobile